Time;durP1;ratioP1;P1;durP2;ratioP2;P2;SDS_P1;SDS_P2;PMS_P1;PMS_P2;Temp;Humidity;BMP_temperature;BMP_pressure;BME280_temperature;BME280_humidity;BME280_pressure;Samples;Min_cycle;Max_cycle;Signal;HPM_P1;HPM_P2
2020/12/15 00:01:37;;;;;;;8.73;7.07;;;;;;;8.25;91.38;100571.84;5181320;28;20061;-69
2020/12/15 00:04:08;;;;;;;12.48;7.63;;;;;;;8.23;91.55;100578.97;5183284;28;20392;-70
2020/12/15 00:06:39;;;;;;;11.32;7.75;;;;;;;8.25;91.43;100576.25;5184776;28;20487;-69
2020/12/15 00:09:10;;;;;;;12.40;7.65;;;;;;;8.24;91.39;100575.41;5181406;28;20030;-70
2020/12/15 00:11:42;;;;;;;11.05;8.13;;;;;;;8.23;91.89;100565.09;5182188;28;20053;-70
2020/12/15 00:14:13;;;;;;;13.63;7.55;;;;;;;8.23;91.97;100562.50;5182126;28;20515;-69
2020/12/15 00:16:44;;;;;;;8.55;7.15;;;;;;;8.23;91.40;100549.44;5179717;28;20042;-69
2020/12/15 00:19:15;;;;;;;8.95;7.45;;;;;;;8.17;91.97;100540.31;5181085;28;20566;-69
2020/12/15 00:21:47;;;;;;;9.07;7.32;;;;;;;8.20;92.42;100537.47;5184106;28;20022;-70
2020/12/15 00:24:18;;;;;;;10.25;7.40;;;;;;;8.19;92.08;100548.03;5196470;28;20138;-70
2020/12/15 00:26:49;;;;;;;11.10;7.25;;;;;;;8.19;92.37;100538.44;5183940;28;20063;-69
2020/12/15 00:29:21;;;;;;;12.27;7.32;;;;;;;8.18;92.31;100535.91;5181835;28;20031;-71
2020/12/15 00:31:52;;;;;;;9.80;7.22;;;;;;;8.17;92.29;100545.53;5183745;28;20092;-69
2020/12/15 00:34:23;;;;;;;12.10;7.85;;;;;;;8.09;92.61;100536.66;5183932;28;20097;-70
2020/12/15 00:36:58;;;;;;;8.73;6.75;;;;;;;8.16;92.16;100548.28;5180127;28;20392;-70
2020/12/15 00:39:29;;;;;;;10.65;7.47;;;;;;;8.14;92.76;100558.00;5182488;28;20023;-70
2020/12/15 00:42:00;;;;;;;11.88;8.20;;;;;;;8.14;92.66;100553.59;5180994;28;20089;-70
2020/12/15 00:44:33;;;;;;;12.55;7.70;;;;;;;8.16;92.88;100558.72;5181732;28;20423;-69
2020/12/15 00:47:04;;;;;;;9.95;7.13;;;;;;;8.14;92.40;100565.81;5181822;28;20415;-70
2020/12/15 00:49:36;;;;;;;12.30;7.40;;;;;;;8.11;92.62;100559.09;5182724;28;20100;-69
2020/12/15 00:52:07;;;;;;;9.50;7.15;;;;;;;8.13;92.41;100561.56;5182829;28;20031;-70
2020/12/15 00:54:38;;;;;;;9.90;6.53;;;;;;;8.11;92.80;100553.88;5181335;28;20034;-69
2020/12/15 00:57:09;;;;;;;10.40;7.55;;;;;;;8.13;92.48;100548.50;5187197;28;20045;-70
2020/12/15 00:59:41;;;;;;;10.95;6.63;;;;;;;8.11;92.70;100546.03;5186814;28;20084;-70
2020/12/15 01:02:12;;;;;;;8.68;6.85;;;;;;;8.10;92.68;100541.75;5184152;28;20034;-69
2020/12/15 01:04:43;;;;;;;8.85;7.35;;;;;;;8.10;92.63;100546.13;5184543;28;20027;-69
2020/12/15 01:07:14;;;;;;;9.25;7.05;;;;;;;8.11;92.13;100538.22;5199856;28;20058;-69
2020/12/15 01:09:46;;;;;;;9.65;7.45;;;;;;;8.09;92.80;100536.66;5184754;28;20037;-70
2020/12/15 01:12:17;;;;;;;9.07;6.60;;;;;;;8.02;92.57;100518.06;5186546;28;20320;-70
2020/12/15 01:14:48;;;;;;;8.57;7.05;;;;;;;8.09;92.58;100515.78;5183080;28;20042;-69
2020/12/15 01:17:19;;;;;;;9.45;6.57;;;;;;;8.05;92.70;100521.25;5184801;28;20074;-69
2020/12/15 01:19:51;;;;;;;10.82;7.07;;;;;;;8.03;92.82;100517.94;5183619;28;20026;-70
2020/12/15 01:22:22;;;;;;;9.05;7.68;;;;;;;8.06;93.08;100535.13;5183591;28;20053;-70
2020/12/15 01:24:53;;;;;;;11.55;7.65;;;;;;;8.09;92.99;100528.84;5186194;28;20019;-70
2020/12/15 01:27:24;;;;;;;10.82;7.35;;;;;;;8.07;93.13;100528.97;5183767;28;20030;-70
2020/12/15 01:29:56;;;;;;;11.18;7.20;;;;;;;8.08;92.83;100535.00;5185925;28;20064;-70
2020/12/15 01:32:27;;;;;;;9.27;6.88;;;;;;;8.07;93.03;100533.34;5185428;28;20026;-70
2020/12/15 01:34:58;;;;;;;10.23;6.53;;;;;;;8.08;92.81;100537.63;5183355;28;20034;-72
2020/12/15 01:37:29;;;;;;;9.93;6.82;;;;;;;8.05;93.24;100531.69;5183838;28;20042;-70
2020/12/15 01:40:02;;;;;;;9.27;6.60;;;;;;;8.06;93.50;100540.34;5187052;28;20076;-70
2020/12/15 01:42:34;;;;;;;11.68;6.82;;;;;;;8.07;93.14;100547.22;5185493;28;20027;-69
2020/12/15 01:45:06;;;;;;;10.32;6.60;;;;;;;8.08;93.33;100546.28;5184727;28;20439;-70
2020/12/15 01:47:37;;;;;;;9.02;6.25;;;;;;;8.00;93.51;100533.00;5185286;28;20038;-70
2020/12/15 01:50:09;;;;;;;10.32;6.80;;;;;;;8.05;93.62;100538.69;5183321;28;20034;-71
2020/12/15 01:52:40;;;;;;;7.82;5.93;;;;;;;8.07;93.09;100549.84;5184103;28;20049;-71
2020/12/15 01:55:16;;;;;;;8.77;7.00;;;;;;;8.08;93.34;100556.72;5184608;28;20038;-70
2020/12/15 01:57:48;;;;;;;11.68;6.38;;;;;;;8.08;93.40;100553.28;5186576;28;20034;-71
2020/12/15 02:00:19;;;;;;;9.75;7.07;;;;;;;8.08;93.69;100558.50;5185652;28;20057;-72
2020/12/15 02:02:51;;;;;;;10.20;6.60;;;;;;;8.05;94.11;100552.56;5186480;28;20031;-70
2020/12/15 02:05:22;;;;;;;8.45;6.85;;;;;;;8.04;94.08;100550.91;5187821;28;20039;-70
2020/12/15 02:07:53;;;;;;;9.90;6.28;;;;;;;8.09;94.02;100552.31;5183277;28;20034;-70
2020/12/15 02:10:25;;;;;;;8.65;6.80;;;;;;;8.08;94.09;100551.50;5182483;28;20058;-71
2020/12/15 02:12:56;;;;;;;9.15;6.90;;;;;;;8.08;94.06;100545.44;5185445;28;20023;-70
2020/12/15 02:15:27;;;;;;;9.45;6.80;;;;;;;8.10;94.04;100551.34;5183844;28;20043;-71
2020/12/15 02:17:58;;;;;;;10.05;7.47;;;;;;;8.09;93.85;100547.09;5184839;28;20050;-70
2020/12/15 02:20:36;;;;;;;9.13;7.13;;;;;;;8.10;93.85;100549.56;5182636;28;20031;-71
2020/12/15 02:23:08;;;;;;;9.98;6.90;;;;;;;8.11;93.99;100561.69;5184507;28;20334;-71
2020/12/15 02:25:40;;;;;;;9.15;6.97;;;;;;;8.11;94.15;100553.03;5184160;28;20085;-70
2020/12/15 02:28:11;;;;;;;9.35;6.90;;;;;;;8.11;93.55;100553.03;5183402;28;20613;-70
2020/12/15 02:30:42;;;;;;;9.27;7.25;;;;;;;8.12;93.93;100546.88;5197697;28;20046;-72
2020/12/15 02:33:13;;;;;;;8.13;7.07;;;;;;;8.13;94.27;100559.78;5184938;28;20122;-71
2020/12/15 02:35:45;;;;;;;10.82;8.00;;;;;;;8.12;93.87;100558.13;5183618;28;20389;-72
2020/12/15 02:38:16;;;;;;;10.68;7.35;;;;;;;8.12;93.78;100555.53;5183524;28;20536;-70
2020/12/15 02:40:47;;;;;;;10.90;7.65;;;;;;;8.11;93.62;100545.22;5185459;28;20037;-69
2020/12/15 02:43:18;;;;;;;9.73;7.28;;;;;;;8.11;93.38;100545.22;5184279;28;20026;-72
2020/12/15 02:45:50;;;;;;;9.85;7.15;;;;;;;8.13;93.43;100558.94;5183097;28;20119;-70
2020/12/15 02:48:21;;;;;;;12.35;8.38;;;;;;;8.14;93.54;100547.56;5182547;28;20039;-70
2020/12/15 02:50:52;;;;;;;9.65;7.32;;;;;;;8.14;93.31;100555.38;5182924;28;20113;-70
2020/12/15 02:53:23;;;;;;;11.82;7.57;;;;;;;8.07;93.50;100541.16;5184504;28;20027;-70
2020/12/15 02:55:55;;;;;;;9.82;7.32;;;;;;;8.10;92.96;100557.41;5185543;28;20022;-72
2020/12/15 02:58:26;;;;;;;12.18;7.45;;;;;;;8.14;93.46;100571.03;5182611;28;20074;-71
2020/12/15 03:00:57;;;;;;;12.27;8.23;;;;;;;8.10;93.43;100562.63;5178456;28;20110;-70
2020/12/15 03:03:29;;;;;;;11.40;8.57;;;;;;;8.11;93.09;100566.91;5182861;28;20086;-70
2020/12/15 03:06:00;;;;;;;9.68;7.70;;;;;;;8.13;93.03;100574.59;5181741;28;20039;-71
2020/12/15 03:08:31;;;;;;;11.32;8.27;;;;;;;8.14;93.44;100581.47;5191860;28;20441;-70
2020/12/15 03:11:04;;;;;;;11.70;7.70;;;;;;;8.14;93.16;100574.47;5180771;28;20150;-70
2020/12/15 03:13:36;;;;;;;;;;;;;;;8.22;92.69;100587.78;5182848;28;20022;-70
2020/12/15 03:16:07;;;;;;;9.70;8.03;;;;;;;8.15;93.17;100583.16;5183223;28;19971;-70
2020/12/15 03:18:38;;;;;;;8.93;7.95;;;;;;;8.16;93.38;100584.81;5183457;28;20539;-71
2020/12/15 03:21:12;;;;;;;10.70;7.45;;;;;;;8.16;93.25;100587.41;5182611;28;20030;-70
2020/12/15 03:23:43;;;;;;;9.90;7.50;;;;;;;8.14;92.70;100582.31;5182020;28;20034;-69
2020/12/15 03:26:15;;;;;;;10.55;8.23;;;;;;;8.12;92.91;100575.56;5182266;28;20035;-70
2020/12/15 03:28:46;;;;;;;9.43;8.15;;;;;;;8.16;93.22;100584.81;5185422;28;20037;-70
2020/12/15 03:31:17;;;;;;;9.13;8.15;;;;;;;8.16;93.16;100590.84;5183630;28;20073;-72
2020/12/15 03:33:49;;;;;;;10.45;7.55;;;;;;;8.11;92.78;100581.75;5184731;28;20030;-71
2020/12/15 03:36:20;;;;;;;9.18;7.75;;;;;;;8.17;92.75;100597.72;5183211;28;20037;-69
2020/12/15 03:38:51;;;;;;;9.48;7.85;;;;;;;8.16;92.86;100597.84;5181683;28;20030;-70
2020/12/15 03:41:23;;;;;;;10.18;8.20;;;;;;;8.16;92.24;100598.69;5181748;28;20124;-70
2020/12/15 03:43:54;;;;;;;10.07;8.10;;;;;;;8.17;92.68;100591.69;5179760;28;20030;-70
2020/12/15 03:46:26;;;;;;;11.60;7.45;;;;;;;8.14;92.37;100592.75;5184639;28;20391;-70
2020/12/15 03:48:57;;;;;;;10.80;8.52;;;;;;;8.15;92.65;100599.63;5183557;28;20482;-71
2020/12/15 03:51:28;;;;;;;11.15;7.32;;;;;;;8.15;92.58;100596.19;5185221;28;20038;-69
2020/12/15 03:54:00;;;;;;;10.68;7.07;;;;;;;8.15;92.17;100601.41;5182829;28;20043;-71
2020/12/15 03:56:31;;;;;;;10.43;8.32;;;;;;;8.11;92.50;100593.00;5182875;28;20034;-69
2020/12/15 03:59:02;;;;;;;11.23;7.63;;;;;;;8.02;92.05;100586.72;5180010;28;20027;-71
2020/12/15 04:01:33;;;;;;;13.45;8.23;;;;;;;8.12;92.17;100599.03;5184159;28;20027;-71
2020/12/15 04:04:05;;;;;;;11.45;8.05;;;;;;;8.09;92.17;100594.88;5179435;28;20077;-69
2020/12/15 04:06:36;;;;;;;8.75;7.45;;;;;;;8.00;91.83;100585.19;5184586;28;20026;-69
2020/12/15 04:09:07;;;;;;;9.02;7.20;;;;;;;8.08;92.55;100597.63;5200779;28;20027;-69
2020/12/15 04:11:39;;;;;;;10.60;7.63;;;;;;;8.04;92.55;100595.25;5197427;28;20027;-69
2020/12/15 04:14:10;;;;;;;10.63;7.63;;;;;;;8.03;92.23;100596.22;5181655;28;20038;-69
2020/12/15 04:16:41;;;;;;;13.73;7.65;;;;;;;8.02;92.55;100598.94;5183987;28;20035;-68
2020/12/15 04:19:12;;;;;;;10.32;7.25;;;;;;;8.00;92.36;100595.63;5182687;28;20069;-69
2020/12/15 04:21:44;;;;;;;13.05;7.38;;;;;;;7.99;91.85;100589.59;5184285;28;20069;-70
2020/12/15 04:24:15;;;;;;;9.10;7.15;;;;;;;8.01;92.12;100595.50;5184007;28;20038;-69
2020/12/15 04:26:46;;;;;;;11.30;7.45;;;;;;;7.99;91.93;100600.00;5180818;28;20396;-69
2020/12/15 04:29:17;;;;;;;8.65;7.20;;;;;;;7.98;91.64;100595.72;5184463;28;20652;-69
2020/12/15 04:31:49;;;;;;;9.13;6.82;;;;;;;7.98;92.03;100603.56;5185662;28;20038;-69
2020/12/15 04:34:20;;;;;;;8.38;6.90;;;;;;;7.99;91.84;100610.44;5185957;28;20041;-69
2020/12/15 04:36:51;;;;;;;10.07;7.22;;;;;;;7.95;92.06;100595.94;5187321;28;20030;-69
2020/12/15 04:39:24;;;;;;;12.18;7.40;;;;;;;7.96;91.98;100591.59;5183798;28;20114;-69
2020/12/15 04:41:55;;;;;;;15.40;7.80;;;;;;;7.95;92.49;100601.16;5185763;28;20033;-69
2020/12/15 04:44:27;;;;;;;9.38;6.97;;;;;;;7.98;92.12;100606.16;5185598;28;20042;-69
2020/12/15 04:47:17;;;;;;;10.80;7.80;;;;;;;8.02;92.39;100618.00;5188951;28;20121;-69
2020/12/15 04:50:01;;;;;;;8.60;6.78;;;;;;;8.01;92.23;100605.09;5187283;28;20026;-69
2020/12/15 04:52:41;;;;;;;12.35;7.55;;;;;;;8.00;92.28;100596.44;5186852;28;20027;-69
2020/12/15 04:55:13;;;;;;;11.70;7.25;;;;;;;7.95;92.61;100593.34;5188107;28;20092;-69
2020/12/15 04:57:46;;;;;;;9.32;7.32;;;;;;;8.00;92.23;100601.66;5188998;28;20018;-71
2020/12/15 05:00:17;;;;;;;9.88;7.43;;;;;;;7.91;91.78;100591.94;5180113;28;20026;-70
2020/12/15 05:02:51;;;;;;;9.35;7.28;;;;;;;7.97;91.93;100603.69;5183629;28;20049;-71
2020/12/15 05:05:22;;;;;;;;;;;;;;;8.08;91.47;100602.84;5184807;28;20034;-69
2020/12/15 05:07:59;;;;;;;8.23;6.80;;;;;;;8.01;92.49;100603.31;5185446;28;19921;-69
2020/12/15 05:10:31;;;;;;;10.00;7.80;;;;;;;7.98;92.22;100598.34;5186622;28;20446;-69
2020/12/15 05:13:02;;;;;;;9.05;7.03;;;;;;;7.95;92.34;100595.94;5186231;28;20029;-68
2020/12/15 05:15:33;;;;;;;9.98;7.53;;;;;;;7.96;92.47;100595.03;5185914;28;20058;-71
2020/12/15 05:18:05;;;;;;;8.98;6.93;;;;;;;7.96;92.72;100589.00;5184873;28;20026;-69
2020/12/15 05:20:36;;;;;;;12.55;7.47;;;;;;;7.96;92.62;100592.41;5187222;28;20031;-69
2020/12/15 05:23:07;;;;;;;13.55;7.00;;;;;;;7.95;92.62;100576.88;5184529;28;20117;-70
2020/12/15 05:25:38;;;;;;;10.55;7.32;;;;;;;7.95;92.68;100585.53;5185480;28;20034;-69
2020/12/15 05:28:12;;;;;;;8.85;7.18;;;;;;;7.97;92.20;100585.41;5187725;28;20033;-69
2020/12/15 05:30:44;;;;;;;10.05;7.88;;;;;;;7.95;92.66;100590.75;5182904;28;20459;-69
2020/12/15 05:33:16;;;;;;;10.27;7.30;;;;;;;7.94;92.93;100591.69;5186789;28;20034;-69
2020/12/15 05:35:48;;;;;;;10.63;7.80;;;;;;;7.89;93.18;100580.81;5184128;28;20046;-69
2020/12/15 05:38:19;;;;;;;10.00;7.18;;;;;;;7.94;92.98;100580.44;5186240;28;20033;-69
2020/12/15 05:40:50;;;;;;;9.23;6.85;;;;;;;7.95;92.76;100582.91;5185330;28;20039;-69
2020/12/15 05:43:25;;;;;;;11.57;6.80;;;;;;;7.94;92.89;100594.31;5184025;28;20125;-70
2020/12/15 05:45:58;;;;;;;8.57;7.43;;;;;;;7.91;93.23;100585.88;5184530;28;20030;-69
2020/12/15 05:48:30;;;;;;;10.73;7.38;;;;;;;7.93;92.77;100592.66;5185466;28;20117;-69
2020/12/15 05:51:02;;;;;;;10.23;6.78;;;;;;;7.85;92.78;100579.38;5187139;28;20283;-69
2020/12/15 05:53:33;;;;;;;10.25;6.68;;;;;;;7.93;93.04;100599.66;5183121;28;20044;-68
2020/12/15 05:56:05;;;;;;;9.38;7.30;;;;;;;7.93;93.02;100597.88;5187354;28;20023;-69
2020/12/15 05:58:38;;;;;;;8.65;6.70;;;;;;;7.89;93.32;100601.66;5186032;28;20026;-69
2020/12/15 06:01:09;;;;;;;8.95;7.38;;;;;;;7.87;92.81;100606.16;5179860;28;20023;-70
2020/12/15 06:03:54;;;;;;;8.43;7.00;;;;;;;7.90;92.99;100603.31;5184221;28;20501;-69
2020/12/15 06:06:28;;;;;;;9.43;6.75;;;;;;;7.88;93.14;100600.00;5184596;28;20039;-68
2020/12/15 06:09:01;;;;;;;9.90;7.22;;;;;;;7.87;93.39;100594.91;5186145;28;20022;-69
2020/12/15 06:11:32;;;;;;;12.05;7.28;;;;;;;7.88;93.00;100602.63;5185025;28;20038;-69
2020/12/15 06:14:04;;;;;;;9.10;7.38;;;;;;;7.89;93.13;100600.84;5183901;28;20030;-69
2020/12/15 06:16:36;;;;;;;8.77;7.03;;;;;;;7.89;93.54;100596.44;5186510;28;20447;-69
2020/12/15 06:19:12;;;;;;;8.25;7.40;;;;;;;7.87;93.24;100595.72;5183803;28;20583;-69
2020/12/15 06:21:55;;;;;;;8.57;7.03;;;;;;;7.87;93.16;100595.72;5185616;28;20034;-69
2020/12/15 06:24:37;;;;;;;10.65;7.80;;;;;;;7.89;93.38;100613.88;5185082;28;20704;-69
2020/12/15 06:27:11;;;;;;;10.68;7.43;;;;;;;7.88;93.55;100620.88;5185835;28;20045;-70
2020/12/15 06:29:44;;;;;;;10.65;7.53;;;;;;;7.86;93.42;100612.34;5185053;28;20037;-69
2020/12/15 06:32:19;;;;;;;9.93;8.30;;;;;;;7.86;93.54;100614.94;5186052;28;20488;-70
2020/12/15 06:34:52;;;;;;;8.55;7.55;;;;;;;7.89;93.54;100619.94;5184282;28;20054;-70
2020/12/15 06:37:24;;;;;;;;;;;;;;;7.94;93.33;100614.34;5185335;28;20400;-69
2020/12/15 06:40:01;;;;;;;10.10;7.60;;;;;;;7.89;93.66;100619.94;5181890;28;19918;-69
2020/12/15 06:42:35;;;;;;;11.18;8.10;;;;;;;7.89;93.62;100617.31;5183443;28;20136;-69
2020/12/15 06:45:10;;;;;;;10.57;8.32;;;;;;;7.89;93.89;100624.31;5184444;28;20038;-69
2020/12/15 06:47:42;;;;;;;9.70;7.75;;;;;;;7.88;93.61;100622.63;5185288;28;20117;-70
2020/12/15 06:50:15;;;;;;;8.45;7.63;;;;;;;7.85;93.82;100623.72;5184639;28;20125;-70
2020/12/15 06:52:46;;;;;;;9.07;7.65;;;;;;;7.88;93.96;100633.91;5183971;28;20475;-69
2020/12/15 06:55:31;;;;;;;10.27;8.52;;;;;;;7.88;93.86;100633.91;5182476;28;20045;-69
2020/12/15 06:58:02;;;;;;;10.10;8.38;;;;;;;7.85;94.01;100628.09;5183249;28;20065;-69
2020/12/15 07:00:39;;;;;;;10.73;8.27;;;;;;;7.85;94.14;100628.94;5183514;28;20188;-69
2020/12/15 07:03:11;;;;;;;10.48;8.85;;;;;;;7.82;93.84;100633.56;5184451;28;20050;-70
2020/12/15 07:05:42;;;;;;;10.52;8.50;;;;;;;7.83;93.75;100637.81;5181830;28;20035;-69
2020/12/15 07:08:13;;;;;;;10.68;8.25;;;;;;;7.86;93.68;100640.19;5183984;28;20049;-69
2020/12/15 07:10:44;;;;;;;9.77;8.65;;;;;;;7.86;93.93;100640.19;5182180;28;20053;-70
2020/12/15 07:13:16;;;;;;;9.20;7.88;;;;;;;7.80;94.27;100638.88;5182868;28;20022;-69
2020/12/15 07:15:47;;;;;;;13.05;8.55;;;;;;;7.83;93.98;100635.22;5182401;28;20062;-69
2020/12/15 07:18:18;;;;;;;9.27;8.10;;;;;;;7.82;93.85;100631.78;5183597;28;20026;-69
2020/12/15 07:20:50;;;;;;;9.77;8.73;;;;;;;7.85;94.42;100636.75;5183634;28;20062;-68
2020/12/15 07:23:21;;;;;;;11.00;8.95;;;;;;;7.80;93.96;100620.63;5182633;28;20019;-69
2020/12/15 07:25:52;;;;;;;10.05;8.75;;;;;;;7.80;93.77;100624.06;5181918;28;20046;-71
2020/12/15 07:28:24;;;;;;;12.52;8.57;;;;;;;7.82;94.31;100623.13;5171758;28;20103;-69
2020/12/15 07:30:55;;;;;;;13.95;8.60;;;;;;;7.81;94.17;100627.50;5173294;28;20395;-70
2020/12/15 07:33:26;;;;;;;9.35;8.18;;;;;;;7.83;94.51;100641.25;5179826;28;20034;-69
2020/12/15 07:35:57;;;;;;;9.25;8.23;;;;;;;7.82;94.16;100641.38;5182495;28;20157;-69
2020/12/15 07:38:30;;;;;;;11.60;9.05;;;;;;;7.78;94.51;100630.34;5182090;28;20023;-71
2020/12/15 07:41:01;;;;;;;11.18;9.48;;;;;;;7.81;94.66;100650.97;5179561;28;20045;-69
2020/12/15 07:43:32;;;;;;;12.18;8.38;;;;;;;7.80;94.44;100651.91;5180037;28;20500;-70
2020/12/15 07:46:15;;;;;;;13.20;8.88;;;;;;;7.82;94.75;100655.25;5181474;28;20038;-68
2020/12/15 07:48:46;;;;;;;9.98;8.90;;;;;;;7.79;94.19;100671.94;5181274;28;20070;-69
2020/12/15 07:51:18;;;;;;;11.18;9.25;;;;;;;7.78;94.32;100667.69;5181242;28;20503;-69
2020/12/15 07:53:53;;;;;;;9.45;8.45;;;;;;;7.83;94.08;100684.75;5197656;28;20030;-70
2020/12/15 07:56:26;;;;;;;11.57;9.23;;;;;;;7.79;95.07;100689.38;5183808;28;20062;-69
2020/12/15 07:58:59;;;;;;;11.15;9.82;;;;;;;7.84;94.92;100695.09;5181555;28;20044;-69
2020/12/15 08:01:32;;;;;;;11.35;9.82;;;;;;;7.87;94.63;100700.06;5178965;28;20038;-69
2020/12/15 08:04:11;;;;;;;11.15;9.38;;;;;;;7.90;94.52;100707.66;5181833;28;20146;-71
2020/12/15 08:06:48;;;;;;;12.43;9.30;;;;;;;7.86;94.89;100694.97;5180867;28;20066;-69
2020/12/15 08:09:19;;;;;;;9.95;8.63;;;;;;;7.87;94.54;100701.84;5183299;28;20018;-70
2020/12/15 08:11:50;;;;;;;10.13;8.95;;;;;;;7.90;95.02;100707.66;5181941;28;20084;-68
2020/12/15 08:14:23;;;;;;;13.43;10.40;;;;;;;7.91;95.26;100703.25;5183959;28;20041;-69
2020/12/15 08:16:54;;;;;;;13.82;9.20;;;;;;;7.91;94.58;100711.91;5182189;28;20101;-69
2020/12/15 08:19:26;;;;;;;12.38;9.60;;;;;;;7.94;95.15;100711.69;5181322;28;20022;-69
2020/12/15 08:21:58;;;;;;;10.50;9.40;;;;;;;7.93;94.75;100717.03;5184100;28;20031;-71
2020/12/15 08:24:29;;;;;;;12.77;9.73;;;;;;;7.95;94.78;100723.78;5183810;28;20034;-69
2020/12/15 08:27:00;;;;;;;11.02;9.70;;;;;;;7.93;95.41;100715.25;5177599;28;20558;-69
2020/12/15 08:29:32;;;;;;;10.68;9.40;;;;;;;7.98;95.26;100722.72;5176029;28;20049;-71
2020/12/15 08:32:03;;;;;;;11.57;9.43;;;;;;;7.99;95.03;100720.00;5180217;28;20037;-69
2020/12/15 08:34:34;;;;;;;10.80;9.15;;;;;;;8.01;95.06;100733.75;5180908;28;20085;-69
2020/12/15 08:37:06;;;;;;;11.65;9.50;;;;;;;8.02;95.10;100735.41;5180558;28;20041;-70
2020/12/15 08:39:40;;;;;;;11.43;9.05;;;;;;;8.03;94.94;100736.25;5180829;28;20128;-69
2020/12/15 08:42:17;;;;;;;11.10;8.88;;;;;;;8.05;94.90;100727.34;5180141;28;20442;-69
2020/12/15 08:44:48;;;;;;;11.13;9.73;;;;;;;8.04;95.00;100717.88;5195542;28;20022;-69
2020/12/15 08:47:20;;;;;;;12.20;9.48;;;;;;;8.04;94.64;100728.31;5178737;28;20032;-69
2020/12/15 08:49:55;;;;;;;13.43;9.60;;;;;;;8.08;94.78;100733.31;5181175;28;20046;-70
2020/12/15 08:52:26;;;;;;;11.10;9.00;;;;;;;8.11;94.89;100741.72;5179791;28;20073;-69
2020/12/15 08:54:57;;;;;;;11.65;8.90;;;;;;;8.12;94.57;100750.38;5173839;28;20022;-70
2020/12/15 08:57:29;;;;;;;10.65;8.73;;;;;;;8.12;94.86;100748.59;5165058;28;20705;-69
2020/12/15 09:00:16;;;;;;;9.13;8.18;;;;;;;8.16;94.78;100754.41;5175448;28;20543;-70
2020/12/15 09:02:47;;;;;;;11.90;9.23;;;;;;;8.16;95.34;100757.03;5175172;28;20030;-70
2020/12/15 09:05:18;;;;;;;9.48;8.55;;;;;;;8.17;94.88;100769.94;5180881;28;20508;-71
2020/12/15 09:07:50;;;;;;;12.70;9.15;;;;;;;8.18;94.62;100770.78;5172095;28;20507;-70
2020/12/15 09:10:22;;;;;;;10.30;8.63;;;;;;;8.20;94.69;100781.94;5173094;28;20031;-70
2020/12/15 09:12:53;;;;;;;11.95;8.40;;;;;;;8.21;94.40;100786.22;5175814;28;20391;-70
2020/12/15 09:15:24;;;;;;;12.35;9.02;;;;;;;8.18;94.07;100776.84;5168178;28;20510;-70
2020/12/15 09:17:55;;;;;;;14.13;9.00;;;;;;;8.23;94.17;100789.53;5180745;28;20081;-71
2020/12/15 09:20:27;;;;;;;11.43;9.05;;;;;;;8.23;94.27;100786.94;5178538;28;20038;-71
2020/12/15 09:22:59;;;;;;;15.55;10.15;;;;;;;8.25;94.39;100785.03;5172189;28;20038;-70
2020/12/15 09:25:30;;;;;;;11.45;9.32;;;;;;;8.24;94.37;100788.59;5176746;28;20031;-70
2020/12/15 09:28:01;;;;;;;14.27;10.30;;;;;;;8.26;93.98;100792.75;5175492;28;20362;-70
2020/12/15 09:30:33;;;;;;;12.00;10.73;;;;;;;8.26;94.15;100797.97;5190731;23;20146;-72
2020/12/15 09:33:08;;;;;;;13.73;11.65;;;;;;;8.31;94.27;100807.25;5138596;29;20043;-71
2020/12/15 09:35:40;;;;;;;15.57;12.93;;;;;;;8.29;94.24;100804.72;5148840;29;20404;-70
2020/12/15 09:38:11;;;;;;;16.45;14.32;;;;;;;8.30;94.33;100795.97;5120510;29;20032;-72
2020/12/15 09:40:42;;;;;;;16.90;14.68;;;;;;;8.31;94.39;100805.44;5140997;29;20088;-70
2020/12/15 09:43:14;;;;;;;19.73;15.40;;;;;;;8.35;94.25;100798.22;5134168;29;20035;-72
2020/12/15 09:45:45;;;;;;;19.20;16.98;;;;;;;8.36;94.25;100794.66;5136985;29;20082;-70
2020/12/15 09:48:17;;;;;;;20.33;17.52;;;;;;;8.39;93.82;100795.28;5132601;29;20541;-71
2020/12/15 09:50:51;;;;;;;20.10;18.05;;;;;;;8.34;93.94;100767.84;5139020;29;20541;-70
2020/12/15 09:53:22;;;;;;;20.73;18.63;;;;;;;8.42;94.11;100776.78;5139417;29;20412;-71
2020/12/15 09:55:53;;;;;;;20.90;18.75;;;;;;;8.40;93.48;100776.06;5130764;29;20042;-71
2020/12/15 09:58:26;;;;;;;20.88;18.80;;;;;;;8.49;94.07;100795.44;5139495;29;20358;-71
2020/12/15 10:00:58;;;;;;;;;;;;;;;8.57;93.05;100803.50;5142695;29;20408;-71
2020/12/15 10:03:29;;;;;;;18.43;16.57;;;;;;;8.52;93.78;100806.47;5141196;29;20360;-71
2020/12/15 10:06:00;;;;;;;19.38;17.48;;;;;;;8.53;93.92;100805.50;5137003;29;20295;-71
2020/12/15 10:08:31;;;;;;;17.58;15.63;;;;;;;8.55;93.84;100799.34;5136820;29;20042;-70
2020/12/15 10:11:03;;;;;;;15.77;14.18;;;;;;;8.55;93.87;100810.59;5135025;29;20042;-71
2020/12/15 10:13:34;;;;;;;15.63;14.02;;;;;;;8.56;93.77;100808.81;5147213;29;20101;-70
2020/12/15 10:16:05;;;;;;;19.30;14.77;;;;;;;8.58;93.53;100812.16;5138870;29;20386;-70
2020/12/15 10:18:37;;;;;;;15.95;13.70;;;;;;;8.60;93.64;100811.09;5137769;29;20473;-72
2020/12/15 10:21:09;;;;;;;15.65;13.40;;;;;;;8.59;93.49;100814.63;5132941;29;20066;-72
2020/12/15 10:23:40;;;;;;;13.70;12.30;;;;;;;8.60;93.43;100810.25;5134593;29;20495;-70
2020/12/15 10:26:11;;;;;;;14.68;13.27;;;;;;;8.61;93.47;100817.16;5133007;29;20062;-71
2020/12/15 10:28:42;;;;;;;14.25;12.85;;;;;;;8.62;93.85;100811.78;5136985;29;20506;-71
2020/12/15 10:31:14;;;;;;;14.93;12.45;;;;;;;8.64;93.54;100804.69;5128251;29;20490;-71
2020/12/15 10:33:45;;;;;;;14.25;12.85;;;;;;;8.66;94.06;100817.63;5146446;29;20038;-71
2020/12/15 10:36:17;;;;;;;14.80;13.23;;;;;;;8.67;94.01;100804.44;5153663;29;21189;-71
2020/12/15 10:38:49;;;;;;;13.60;12.18;;;;;;;8.70;94.36;100825.09;5139366;29;20039;-71
2020/12/15 10:41:27;;;;;;;15.43;13.77;;;;;;;8.73;93.74;100818.81;5135618;29;20465;-71
2020/12/15 10:43:58;;;;;;;14.30;12.75;;;;;;;8.74;93.52;100802.19;5132860;29;20051;-71
2020/12/15 10:46:29;;;;;;;14.02;12.63;;;;;;;8.76;93.90;100808.97;5136089;29;20059;-71
2020/12/15 10:49:00;;;;;;;14.90;13.20;;;;;;;8.76;93.28;100808.13;5145796;29;20119;-72
2020/12/15 10:51:32;;;;;;;14.48;12.77;;;;;;;8.77;93.59;100809.78;5141552;29;20038;-71
2020/12/15 10:54:04;;;;;;;15.50;13.88;;;;;;;8.77;93.89;100817.63;5138435;29;20477;-71
2020/12/15 10:56:35;;;;;;;15.10;13.43;;;;;;;8.78;93.82;100819.28;5132580;29;20027;-72
2020/12/15 10:59:06;;;;;;;14.13;12.75;;;;;;;8.75;93.86;100806.44;5131396;29;20034;-71
2020/12/15 11:01:38;;;;;;;13.45;12.13;;;;;;;8.80;93.30;100809.56;5136822;29;20046;-71
2020/12/15 11:04:09;;;;;;;13.02;11.73;;;;;;;8.83;93.46;100814.53;5137921;29;20371;-71
2020/12/15 11:06:40;;;;;;;12.90;10.85;;;;;;;8.81;93.72;100813.00;5133859;29;20090;-71
2020/12/15 11:09:12;;;;;;;13.18;11.70;;;;;;;8.83;93.66;100826.78;5135136;29;20023;-72
2020/12/15 11:11:47;;;;;;;12.68;11.38;;;;;;;8.84;94.03;100831.03;5130662;29;20027;-71
2020/12/15 11:14:19;;;;;;;12.73;11.40;;;;;;;8.82;93.98;100838.16;5142307;29;20110;-71
2020/12/15 11:16:50;;;;;;;11.15;9.95;;;;;;;8.82;93.48;100843.38;5140645;29;20501;-71
2020/12/15 11:19:22;;;;;;;12.25;10.77;;;;;;;8.84;93.80;100841.50;5142829;29;20055;-71
2020/12/15 11:21:53;;;;;;;14.15;9.93;;;;;;;8.83;93.75;100848.50;5147465;29;20265;-70
2020/12/15 11:24:24;;;;;;;11.23;10.07;;;;;;;8.81;94.17;100845.16;5134180;29;20036;-71
2020/12/15 11:26:56;;;;;;;11.77;9.75;;;;;;;8.79;94.11;100847.09;5137909;29;20027;-71
2020/12/15 11:29:27;;;;;;;10.90;9.80;;;;;;;8.80;93.57;100847.91;5139595;29;20125;-71
2020/12/15 11:31:58;;;;;;;10.90;9.77;;;;;;;8.80;93.90;100842.69;5144728;29;20066;-72
2020/12/15 11:34:29;;;;;;;11.18;9.52;;;;;;;8.81;94.03;100850.38;5147602;29;20416;-71
2020/12/15 11:37:01;;;;;;;10.88;9.77;;;;;;;8.80;94.49;100848.72;5134431;29;20024;-71
2020/12/15 11:39:32;;;;;;;10.10;8.98;;;;;;;8.81;94.42;100842.56;5129019;29;20039;-71
2020/12/15 11:42:08;;;;;;;9.80;8.80;;;;;;;8.83;94.45;100855.50;5133344;29;20028;-71
2020/12/15 11:44:39;;;;;;;10.73;9.05;;;;;;;8.82;94.57;100862.50;5134801;29;20035;-72
2020/12/15 11:47:10;;;;;;;11.23;8.68;;;;;;;8.84;94.20;100857.16;5134477;29;20042;-72
2020/12/15 11:49:42;;;;;;;9.73;8.70;;;;;;;8.82;94.52;100862.50;5135985;29;20575;-72